Flight Track Log - Related Links

Times and Time Zones

All times are in EDT time to prevent confusion due to time zone crossing. See the KAP29 flight status page for this flight to view local times or setup timezone preferences in your user account.

Time Position Orientation Groundspeed Altitude Reporting Facility
EDT Latitude Longitude Course Direction KTS MPH feet Rate Location/Type
Fri 05:16:00 PM 44.3707 -74.1728 122° Southeast  Level FlightAware
Fri 05:20:47 PM 44.4808 -74.0869 122° Southeast 154 177 5,400  Level Boston Center
Fri 05:21:47 PM 44.4711 -74.0400 106° East 114 131 6,400 1,100 Climbing Boston Center
Fri 05:22:47 PM 44.4486 -73.9989 127° Southeast 120 138 7,600 1,050 Climbing Boston Center
Fri 05:23:47 PM 44.4242 -73.9544 128° Southeast 126 145 8,500 700 Climbing Boston Center
Fri 05:24:47 PM 44.4000 -73.9103 127° Southeast 136 157 9,000 250 Climbing Boston Center
Fri 05:25:47 PM 44.3797 -73.8603 120° Southeast 141 162 9,000  Level Boston Center
Fri 05:26:47 PM 44.3575 -73.8019 118° Southeast 154 177 9,000  Level Boston Center
Fri 05:27:47 PM 44.3331 -73.7606 130° Southeast 160 184 9,000  Level Boston Center
Fri 05:28:47 PM 44.3025 -73.6961 124° Southeast 171 197 9,000  Level Boston Center
Fri 05:29:47 PM 44.2758 -73.6433 125° Southeast 171 197 9,000  Level Boston Center
Fri 05:30:47 PM 44.2472 -73.5847 124° Southeast 176 203 9,000  Level Boston Center
Fri 05:31:47 PM 44.2208 -73.5292 124° Southeast 176 203 9,000  Level Boston Center
Fri 05:32:47 PM 44.1922 -73.4736 126° Southeast 176 203 9,000  Level Boston Center
Fri 05:33:47 PM 44.1633 -73.4183 126° Southeast 176 203 9,000  Level Boston Center
Fri 05:34:47 PM 44.1347 -73.3656 127° Southeast 176 203 9,000  Level Boston Center
Fri 05:35:47 PM 44.1100 -73.3133 123° Southeast 171 197 9,000  Level Boston Center
Fri 05:36:47 PM 44.0814 -73.2581 126° Southeast 179 206 9,000  Level Boston Center
Fri 05:37:47 PM 44.0586 -73.2086 123° Southeast 172 198 9,000  Level Boston Center
Fri 05:38:47 PM 44.0319 -73.1561 125° Southeast 172 198 9,000  Level Boston Center
Fri 05:39:47 PM 44.0053 -73.1011 124° Southeast 177 204 9,000  Level Boston Center
Fri 05:40:47 PM 43.9764 -73.0458 126° Southeast 177 204 9,000  Level Boston Center
Fri 05:41:47 PM 43.9494 -72.9936 126° Southeast 172 198 9,000  Level Boston Center
Fri 05:42:47 PM 43.9206 -72.9386 126° Southeast 178 205 9,000  Level Boston Center
Fri 05:43:47 PM 43.8917 -72.8808 125° Southeast 172 198 9,000  Level Boston Center
Fri 05:44:47 PM 43.8669 -72.8258 122° Southeast 172 198 9,000  Level Boston Center
Fri 05:45:47 PM 43.8400 -72.7769 127° Southeast 172 198 9,000  Level Boston Center
Fri 05:46:47 PM 43.8150 -72.7278 125° Southeast 172 198 9,000  Level Boston Center
Fri 05:47:47 PM 43.7903 -72.6789 125° Southeast 167 192 9,000 50 Level Boston Center
Fri 05:48:47 PM 43.7653 -72.6269 124° Southeast 167 192 9,100 50 Climbing Boston Center
Fri 05:49:47 PM 43.7383 -72.5781 127° Southeast 161 185 9,100  Level Boston Center
Fri 05:50:47 PM 43.7111 -72.5261 126° Southeast 161 185 9,100  Level Boston Center
Fri 05:51:47 PM 43.6883 -72.4744 121° Southeast 161 185 9,100  Level Boston Center
Fri 05:52:47 PM 43.6611 -72.4228 126° Southeast 161 185 9,100  Level Boston Center
Fri 05:53:47 PM 43.6361 -72.3742 125° Southeast 161 185 9,100  Level Boston Center
Fri 05:54:47 PM 43.6111 -72.3253 125° Southeast 161 185 9,100  Level Boston Center
Fri 05:55:47 PM 43.5839 -72.2767 128° Southeast 161 185 9,100  Level Boston Center
Fri 05:56:47 PM 43.5589 -72.2308 127° Southeast 161 185 9,100  Level Boston Center
Fri 05:57:47 PM 43.5339 -72.1794 124° Southeast 161 185 9,100  Level Boston Center
Fri 05:58:47 PM 43.5108 -72.1281 122° Southeast 161 185 9,100  Level Boston Center
Fri 05:59:47 PM 43.4856 -72.0825 127° Southeast 156 180 9,100  Level Boston Center
Fri 06:00:47 PM 43.4606 -72.0339 125° Southeast 156 180 9,100  Level Boston Center
Fri 06:01:47 PM 43.4331 -71.9828 127° Southeast 156 180 9,100  Level Boston Center
Fri 06:02:47 PM 43.4122 -71.9428 126° Southeast 156 180 9,100  Level Boston Center
Fri 06:03:47 PM 43.3722 -71.8944 139° Southeast 156 180 9,100  Level Boston Center
Fri 06:04:47 PM 43.3431 -71.8606 140° Southeast 151 174 9,100  Level Boston Center
Fri 06:05:47 PM 43.3072 -71.8153 137° Southeast 157 181 9,100  Level Boston Center
Fri 06:06:47 PM 43.2800 -71.7756 133° Southeast 157 181 9,100  Level Boston Center
Fri 06:07:47 PM 43.2444 -71.7303 137° Southeast 157 181 9,100  Level Boston Center
Fri 06:08:47 PM 43.2169 -71.6936 136° Southeast 157 181 9,100 -200 Level Boston Center
Fri 06:09:47 PM 43.1792 -71.6486 139° Southeast 162 186 8,700 -424 Descending Boston Center
Fri 06:10:26 PM 43.1500 -71.6167 141° Southeast 171 197 8,400 -545 Descending KA90
Fri 06:11:26 PM 43.1167 -71.5667 132° Southeast 195 224 7,800 -600 Descending KA90
Fri 06:12:26 PM 43.0833 -71.5167 132° Southeast 227 261 7,200 -524 Descending KA90
Fri 06:13:32 PM 43.0500 -71.4667 132° Southeast 180 207 6,700 -429 Descending KA90
Fri 06:14:32 PM 43.0167 -71.4333 144° Southeast 169 194 6,300 -300 Descending KA90
Fri 06:15:32 PM 42.9833 -71.3833 132° Southeast 164 189 6,100 -150 Descending KA90
Fri 06:16:32 PM 42.9500 -71.3500 144° Southeast 154 177 6,000 -53 Descending KA90
Fri 06:17:26 PM 42.9167 -71.3167 144° Southeast 150 173 6,000  Level KA90
Fri 06:18:26 PM 42.8833 -71.2833 144° Southeast 148 170 6,000 -100 Level KA90
Fri 06:19:26 PM 42.8500 -71.2500 144° Southeast 153 176 5,800 -200 Descending KA90
Fri 06:20:26 PM 42.8167 -71.2333 160° South 153 176 5,600 -250 Descending KA90
Fri 06:21:26 PM 42.7667 -71.2167 166° South 155 178 5,300 -250 Descending KA90
Fri 06:22:26 PM 42.7333 -71.2000 160° South 153 176 5,100 -100 Descending KA90
Fri 06:23:26 PM 42.7000 -71.1667 144° Southeast 146 168 5,100  Level KA90
Fri 06:24:26 PM 42.6500 -71.1500 166° South 140 161 5,100 -50 Level KA90
Fri 06:25:26 PM 42.6167 -71.1833 216° Southwest 153 176 5,000 -50 Descending KA90
Fri 06:26:26 PM 42.6000 -71.2333 246° West 153 176 5,000  Level KA90
Fri 06:27:26 PM 42.5667 -71.2833 228° Southwest 152 175 5,000  Level KA90
Fri 06:28:26 PM 42.5500 -71.3167 236° Southwest 151 174 5,000  Level KA90
Fri 06:29:27 PM 42.5167 -71.3000 160° South 146 168 5,000  Level KA90
Fri 06:30:26 PM 42.5167 -71.2500 90° East 151 174 5,000  Level KA90
Fri 06:31:26 PM 42.5000 -71.1833 109° East 157 181 5,000  Level KA90
Fri 06:32:26 PM 42.4833 -71.1333 114° Southeast 140 161 5,000  Level KA90
Fri 06:33:26 PM 42.4500 -71.1333 180° South 140 161 5,000  Level KA90
Fri 06:34:26 PM 42.4167 -71.1500 200° South 137 158 5,000  Level KA90
Fri 06:35:27 PM 42.3833 -71.1833 216° Southwest 137 158 5,000  Level KA90
Fri 06:36:27 PM 42.3500 -71.2000 200° South 137 158 5,000 -150 Level KA90
Fri 06:37:27 PM 42.3167 -71.2333 216° Southwest 145 167 4,700 -300 Descending KA90
Fri 06:38:27 PM 42.2667 -71.2167 166° South 156 180 4,400 -300 Descending KA90
Fri 06:39:27 PM 42.2333 -71.2000 160° South 157 181 4,100 -350 Descending KA90
Fri 06:40:27 PM 42.2167 -71.1500 114° Southeast 166 191 3,700 -450 Descending KA90
Fri 06:41:27 PM 42.2167 -71.1000 90° East 174 200 3,200 -555 Descending KA90
Fri 06:42:26 PM 42.2500 -71.0500 48° Northeast 183 211 2,600 -50 Descending KA90
Fri 06:43:26 PM 42.2833 -71.0833 324° Northwest 165 190 3,100 250 Climbing KA90
Fri 06:44:26 PM 42.3000 -71.1500 289° West 180 207 3,100  Level KA90
Fri 06:45:26 PM 42.2667 -71.1667 200° South 161 185 3,100 -149 Level KA90
Fri 06:46:27 PM 42.2333 -71.1333 143° Southeast 148 170 2,800 -295 Descending KA90

Login

Don't have an account? Register now (free) for customized features, flight alerts, and more!